Time;durP1;ratioP1;P1;durP2;ratioP2;P2;SDS_P1;SDS_P2;PMS_P1;PMS_P2;Temp;Humidity;BMP_temperature;BMP_pressure;BME280_temperature;BME280_humidity;BME280_pressure;Samples;Min_cycle;Max_cycle;Signal;HPM_P1;HPM_P2
2022/09/01 00:01:45;;;;;;;;;;;;;;;;;;5077774;28;20399;-72
2022/09/01 00:04:11;;;;;;;;;;;;;;;;;;5059955;28;20439;-71
2022/09/01 00:06:39;;;;;;;;;;;;;;;;;;5074175;28;19948;-71
2022/09/01 00:09:04;;;;;;;;;;;;;;;;;;5074574;28;19919;-70
2022/09/01 00:11:29;;;;;;;;;;;;;;;;;;5056963;28;19995;-72
2022/09/01 00:13:54;;;;;;;;;;;;;;;;;;5079212;28;19958;-72
2022/09/01 00:16:20;;;;;;;;;;;;;;;;;;5065655;28;20399;-72
2022/09/01 00:18:45;;;;;;;;;;;;;;;;;;5056786;28;19924;-72
2022/09/01 00:21:10;;;;;;;;;;;;;;;;;;5052926;28;20336;-72
2022/09/01 00:23:35;;;;;;;;;;;;;;;;;;5040196;28;19950;-73
2022/09/01 00:26:00;;;;;;;;;;;;;;;;;;5065402;28;20346;-76
2022/09/01 00:28:26;;;;;;;;;;;;;;;;;;5041352;28;19947;-74
2022/09/01 00:30:52;;;;;;;;;;;;;;;;;;5065359;28;19912;-72
2022/09/01 00:33:17;;;;;;;;;;;;;;;;;;5055418;28;19917;-71
2022/09/01 00:35:42;;;;;;;;;;;;;;;;;;5044203;28;19922;-72
2022/09/01 00:38:07;;;;;;;;;;;;;;;;;;5065879;28;19979;-71
2022/09/01 00:40:32;;;;;;;;;;;;;;;;;;5054339;28;19913;-72
2022/09/01 00:42:59;;;;;;;;;;;;;;;;;;5057977;28;19913;-72
2022/09/01 00:45:24;;;;;;;;;;;;;;;;;;5039875;28;19913;-72
2022/09/01 00:47:49;;;;;;;;;;;;;;;;;;5055002;28;19928;-72
2022/09/01 00:50:14;;;;;;;;;;;;;;;;;;5055135;28;20362;-72
2022/09/01 00:52:40;;;;;;;;;;;;;;;;;;5056225;28;19926;-72
2022/09/01 00:55:05;;;;;;;;;;;;;;;;;;5067719;28;19920;-72
2022/09/01 00:57:30;;;;;;;;;;;;;;;;;;5063118;28;19919;-73
2022/09/01 00:59:55;;;;;;;;;;;;;;;;;;5067162;28;19916;-71
2022/09/01 01:02:21;;;;;;;;;;;;;;;;;;5063558;28;19908;-73
2022/09/01 01:04:46;;;;;;;;;;;;;;;;;;5040164;28;19920;-73
2022/09/01 01:07:12;;;;;;;;;;;;;;;;;;5055132;28;20402;-74
2022/09/01 01:09:37;;;;;;;;;;;;;;;;;;5057991;28;20318;-74
2022/09/01 01:12:02;;;;;;;;;;;;;;;;;;5074636;28;19977;-72
2022/09/01 01:14:30;;;;;;;;;;;;;;;;;;5037454;28;19920;-73
2022/09/01 01:16:55;;;;;;;;;;;;;;;;;;5086507;28;19927;-71
2022/09/01 01:23:01;;;;;;;;;;;;;;;;;;5081475;28;19920;-73
2022/09/01 01:24:49;;;;;;;;;;;;;;;;;;5076753;28;19933;-73
2022/09/01 01:27:20;;;;;;;;;;;;;;;;;;5074586;28;19917;-73
2022/09/01 01:29:46;;;;;;;;;;;;;;;;;;5057098;28;19939;-72
2022/09/01 01:32:11;;;;;;;;;;;;;;;;;;5081934;28;20372;-73
2022/09/01 01:34:41;;;;;;;;;;;;;;;;;;5086732;28;20372;-72
2022/09/01 01:37:06;;;;;;;;;;;;;;;;;;5074171;28;19977;-73
2022/09/01 01:39:31;;;;;;;;;;;;;;;;;;5073691;28;20015;-73
2022/09/01 01:41:57;;;;;;;;;;;;;;;;;;5057392;28;19917;-72
2022/09/01 01:44:23;;;;;;;;;;;;;;;;;;5053956;28;20417;-72
2022/09/01 01:46:49;;;;;;;;;;;;;;;;;;5079587;28;19918;-73
2022/09/01 01:49:17;;;;;;;;;;;;;;;;;;5087034;28;20002;-73
2022/09/01 01:51:42;;;;;;;;;;;;;;;;;;5073338;28;20011;-72
2022/09/01 01:54:08;;;;;;;;;;;;;;;;;;5081288;28;20012;-71
2022/09/01 01:56:34;;;;;;;;;;;;;;;;;;5074689;28;19916;-70
2022/09/01 01:59:00;;;;;;;;;;;;;;;;;;5085587;28;20032;-72
2022/09/01 02:01:27;;;;;;;;;;;;;;;;;;5080109;28;19922;-71
2022/09/01 02:03:53;;;;;;;;;;;;;;;;;;5087970;28;20322;-72
2022/09/01 02:06:20;;;;;;;;;;;;;;;;;;5084641;28;19971;-72
2022/09/01 02:08:45;;;;;;;;;;;;;;;;;;5071708;28;19912;-73
2022/09/01 02:11:11;;;;;;;;;;;;;;;;;;5094295;28;19954;-73
2022/09/01 02:13:37;;;;;;;;;;;;;;;;;;5061026;28;19923;-73
2022/09/01 02:16:02;;;;;;;;;;;;;;;;;;5058774;28;19927;-71
2022/09/01 02:18:27;;;;;;;;;;;;;;;;;;5073706;28;19983;-71
2022/09/01 02:20:52;;;;;;;;;;;;;;;;;;5071580;28;19920;-71
2022/09/01 02:23:22;;;;;;;;;;;;;;;;;;5083564;28;19912;-71
2022/09/01 02:25:47;;;;;;;;;;;;;;;;;;5086038;28;19924;-71
2022/09/01 02:28:14;;;;;;;;;;;;;;;;;;5073908;28;20359;-72
2022/09/01 02:30:40;;;;;;;;;;;;;;;;;;5059131;28;19999;-72
2022/09/01 02:33:07;;;;;;;;;;;;;;;;;;5081824;28;20423;-72
2022/09/01 02:35:33;;;;;;;;;;;;;;;;;;5081500;28;19923;-73
2022/09/01 02:37:59;;;;;;;;;;;;;;;;;;5090486;28;19908;-72
2022/09/01 02:40:24;;;;;;;;;;;;;;;;;;5061516;28;19916;-72
2022/09/01 02:42:53;;;;;;;;;;;;;;;;;;5073948;28;19912;-72
2022/09/01 02:45:18;;;;;;;;;;;;;;;;;;5080333;28;20007;-73
2022/09/01 02:47:44;;;;;;;;;;;;;;;;;;5092762;28;20007;-72
2022/09/01 02:50:12;;;;;;;;;;;;;;;;;;5085978;28;19912;-73
2022/09/01 02:52:39;;;;;;;;;;;;;;;;;;5092191;28;19951;-73
2022/09/01 02:55:04;;;;;;;;;;;;;;;;;;5083919;28;19916;-73
2022/09/01 02:57:33;;;;;;;;;;;;;;;;;;5090919;28;20407;-74
2022/09/01 02:59:58;;;;;;;;;;;;;;;;;;5080962;28;19977;-73
2022/09/01 03:02:27;;;;;;;;;;;;;;;;;;5088004;28;19912;-71
2022/09/01 03:04:54;;;;;;;;;;;;;;;;;;5075004;28;19920;-73
2022/09/01 03:07:20;;;;;;;;;;;;;;;;;;5064974;28;19919;-73
2022/09/01 03:09:45;;;;;;;;;;;;;;;;;;5091482;28;20002;-74
2022/09/01 03:12:10;;;;;;;;;;;;;;;;;;5078997;28;19995;-74
2022/09/01 03:14:36;;;;;;;;;;;;;;;;;;5067470;28;19929;-73
2022/09/01 03:17:01;;;;;;;;;;;;;;;;;;5057824;28;19916;-73
2022/09/01 03:19:26;;;;;;;;;;;;;;;;;;5063360;28;19924;-73
2022/09/01 03:21:51;;;;;;;;;;;;;;;;;;5040761;28;19936;-74
2022/09/01 03:24:16;;;;;;;;;;;;;;;;;;5063461;28;19923;-73
2022/09/01 03:26:41;;;;;;;;;;;;;;;;;;5059087;28;19916;-73
2022/09/01 03:29:07;;;;;;;;;;;;;;;;;;5052388;28;19939;-72
2022/09/01 03:31:32;;;;;;;;;;;;;;;;;;5036857;28;20379;-73
2022/09/01 03:33:57;;;;;;;;;;;;;;;;;;5069205;28;19916;-72
2022/09/01 03:36:22;;;;;;;;;;;;;;;;;;5034249;28;19916;-73
2022/09/01 03:38:48;;;;;;;;;;;;;;;;;;5051610;28;19912;-73
2022/09/01 03:41:13;;;;;;;;;;;;;;;;;;5056406;28;20410;-74
2022/09/01 03:43:38;;;;;;;;;;;;;;;;;;5051305;28;20316;-72
2022/09/01 03:46:03;;;;;;;;;;;;;;;;;;5042187;28;20444;-71
2022/09/01 03:48:28;;;;;;;;;;;;;;;;;;5066716;28;19912;-73
2022/09/01 03:50:53;;;;;;;;;;;;;;;;;;5053557;28;20356;-71
2022/09/01 03:53:19;;;;;;;;;;;;;;;;;;5057172;28;20372;-74
2022/09/01 03:55:44;;;;;;;;;;;;;;;;;;5057914;28;19916;-73
2022/09/01 03:58:11;;;;;;;;;;;;;;;;;;5044049;28;19925;-74
2022/09/01 04:00:36;;;;;;;;;;;;;;;;;;5054751;28;20490;-74
2022/09/01 04:03:01;;;;;;;;;;;;;;;;;;5065264;28;19920;-74
2022/09/01 04:05:27;;;;;;;;;;;;;;;;;;5070162;28;19908;-74
2022/09/01 04:07:53;;;;;;;;;;;;;;;;;;5064996;28;20092;-76
2022/09/01 04:10:18;;;;;;;;;;;;;;;;;;5037490;28;19920;-74
2022/09/01 04:12:43;;;;;;;;;;;;;;;;;;5060637;28;19922;-72
2022/09/01 04:15:08;;;;;;;;;;;;;;;;;;5066233;28;20012;-74
2022/09/01 04:20:19;;;;;;;;;;;;;;;;;;5077406;28;19969;-73
2022/09/01 04:22:46;;;;;;;;;;;;;;;;;;5075322;28;20371;-72
2022/09/01 04:25:12;;;;;;;;;;;;;;;;;;5066150;28;19920;-73
2022/09/01 04:27:39;;;;;;;;;;;;;;;;;;5064143;28;20372;-72
2022/09/01 04:30:04;;;;;;;;;;;;;;;;;;5079649;28;19916;-73
2022/09/01 04:32:29;;;;;;;;;;;;;;;;;;5062804;28;20398;-72
2022/09/01 04:34:54;;;;;;;;;;;;;;;;;;5083336;28;19922;-73
2022/09/01 04:37:20;;;;;;;;;;;;;;;;;;5080119;28;19911;-72
2022/09/01 04:39:47;;;;;;;;;;;;;;;;;;5087043;28;20257;-66
2022/09/01 04:42:12;;;;;;;;;;;;;;;;;;5079461;28;19919;-68
2022/09/01 04:44:38;;;;;;;;;;;;;;;;;;5083175;28;19920;-71
2022/09/01 04:47:09;;;;;;;;;;;;;;;;;;5089034;28;19969;-68
2022/09/01 04:49:36;;;;;;;;;;;;;;;;;;5069854;28;19908;-67
2022/09/01 04:52:01;;;;;;;;;;;;;;;;;;5077302;28;20003;-68
2022/09/01 04:54:26;;;;;;;;;;;;;;;;;;5085361;28;20409;-68
2022/09/01 04:56:53;;;;;;;;;;;;;;;;;;5078254;28;19913;-69
2022/09/01 04:59:19;;;;;;;;;;;;;;;;;;5065179;28;19919;-68
2022/09/01 05:01:45;;;;;;;;;;;;;;;;;;5081475;28;19913;-72
2022/09/01 05:04:11;;;;;;;;;;;;;;;;;;5082485;28;19912;-65
2022/09/01 05:06:38;;;;;;;;;;;;;;;;;;5074730;28;19920;-68
2022/09/01 05:09:04;;;;;;;;;;;;;;;;;;5080528;28;19916;-69
2022/09/01 05:11:31;;;;;;;;;;;;;;;;;;5082333;28;20250;-68
2022/09/01 05:13:56;;;;;;;;;;;;;;;;;;5054703;28;19920;-67
2022/09/01 05:16:22;;;;;;;;;;;;;;;;;;5083176;28;19920;-68
2022/09/01 05:18:47;;;;;;;;;;;;;;;;;;5076886;28;19920;-69
2022/09/01 05:21:15;;;;;;;;;;;;;;;;;;5094759;28;19919;-69
2022/09/01 05:23:40;;;;;;;;;;;;;;;;;;5084019;28;20361;-68
2022/09/01 05:26:13;;;;;;;;;;;;;;;;;;5074723;28;19920;-67
2022/09/01 05:28:38;;;;;;;;;;;;;;;;;;5074717;28;19977;-68
2022/09/01 05:31:04;;;;;;;;;;;;;;;;;;5074614;28;19912;-67
2022/09/01 05:33:29;;;;;;;;;;;;;;;;;;5056673;28;19919;-68
2022/09/01 05:35:54;;;;;;;;;;;;;;;;;;5055836;28;20069;-69
2022/09/01 05:38:20;;;;;;;;;;;;;;;;;;5056577;28;19909;-67
2022/09/01 05:40:45;;;;;;;;;;;;;;;;;;5072008;28;19969;-68
2022/09/01 05:43:11;;;;;;;;;;;;;;;;;;5080614;28;19935;-68
2022/09/01 05:45:37;;;;;;;;;;;;;;;;;;5075841;28;20010;-68
2022/09/01 05:48:04;;;;;;;;;;;;;;;;;;5067939;28;19978;-69
2022/09/01 05:50:30;;;;;;;;;;;;;;;;;;5077245;28;19915;-67
2022/09/01 05:52:55;;;;;;;;;;;;;;;;;;5056216;28;19909;-68
2022/09/01 05:55:21;;;;;;;;;;;;;;;;;;5084087;28;19940;-68
2022/09/01 05:57:47;;;;;;;;;;;;;;;;;;5087226;28;20002;-68
2022/09/01 06:00:12;;;;;;;;;;;;;;;;;;5079560;28;20498;-69
2022/09/01 06:02:38;;;;;;;;;;;;;;;;;;5075028;28;19909;-68
2022/09/01 06:05:03;;;;;;;;;;;;;;;;;;5087444;28;20387;-68
2022/09/01 06:07:29;;;;;;;;;;;;;;;;;;5090881;28;19912;-68
2022/09/01 06:09:54;;;;;;;;;;;;;;;;;;5075626;28;19909;-68
2022/09/01 06:12:22;;;;;;;;;;;;;;;;;;5093452;28;19958;-68
2022/09/01 06:14:47;;;;;;;;;;;;;;;;;;5071941;28;19916;-68
2022/09/01 06:17:15;;;;;;;;;;;;;;;;;;5086998;28;19916;-68
2022/09/01 06:19:41;;;;;;;;;;;;;;;;;;5064858;28;19935;-68
2022/09/01 06:22:09;;;;;;;;;;;;;;;;;;5061130;28;19912;-68
2022/09/01 06:24:34;;;;;;;;;;;;;;;;;;5076576;28;19908;-68
2022/09/01 06:26:59;;;;;;;;;;;;;;;;;;5078825;28;19913;-68
2022/09/01 06:29:25;;;;;;;;;;;;;;;;;;5076783;28;19908;-68
2022/09/01 06:31:51;;;;;;;;;;;;;;;;;;5067534;28;21073;-69
2022/09/01 06:34:16;;;;;;;;;;;;;;;;;;5079281;28;19909;-68
2022/09/01 06:36:42;;;;;;;;;;;;;;;;;;5081034;28;19912;-68
2022/09/01 06:39:07;;;;;;;;;;;;;;;;;;5089776;28;19927;-68
2022/09/01 06:41:32;;;;;;;;;;;;;;;;;;5093718;28;19912;-68
2022/09/01 06:44:00;;;;;;;;;;;;;;;;;;5072320;28;19938;-67
2022/09/01 06:46:28;;;;;;;;;;;;;;;;;;5058349;28;20002;-68
2022/09/01 06:48:57;;;;;;;;;;;;;;;;;;5062046;28;19919;-68
2022/09/01 06:51:23;;;;;;;;;;;;;;;;;;5089885;28;19923;-67
2022/09/01 06:53:51;;;;;;;;;;;;;;;;;;5083336;28;19920;-67
2022/09/01 06:56:17;;;;;;;;;;;;;;;;;;5074585;28;19908;-68
2022/09/01 06:58:46;;;;;;;;;;;;;;;;;;5085877;28;19913;-67
2022/09/01 07:01:14;;;;;;;;;;;;;;;;;;5066628;28;20388;-67
2022/09/01 07:03:39;;;;;;;;;;;;;;;;;;5092232;28;19915;-68
2022/09/01 07:06:05;;;;;;;;;;;;;;;;;;5093379;28;20012;-67
2022/09/01 07:08:34;;;;;;;;;;;;;;;;;;5088272;28;19948;-67
2022/09/01 07:11:00;;;;;;;;;;;;;;;;;;5076328;28;19920;-67
2022/09/01 07:13:26;;;;;;;;;;;;;;;;;;5060382;28;19916;-67
2022/09/01 07:15:51;;;;;;;;;;;;;;;;;;5070015;28;20335;-68
2022/09/01 07:18:16;;;;;;;;;;;;;;;;;;5085893;28;19979;-67
2022/09/01 07:20:41;;;;;;;;;;;;;;;;;;5061491;28;20289;-68
2022/09/01 07:23:08;;;;;;;;;;;;;;;;;;5085294;28;20475;-67
2022/09/01 07:25:38;;;;;;;;;;;;;;;;;;5078896;28;19919;-69
2022/09/01 07:28:03;;;;;;;;;;;;;;;;;;5059326;28;19916;-69
2022/09/01 07:30:30;;;;;;;;;;;;;;;;;;5059770;28;20364;-67
2022/09/01 07:32:56;;;;;;;;;;;;;;;;;;5082433;28;19912;-68
2022/09/01 07:35:21;;;;;;;;;;;;;;;;;;5077736;28;19958;-67
2022/09/01 07:37:47;;;;;;;;;;;;;;;;;;5072637;28;19916;-68
2022/09/01 07:40:18;;;;;;;;;;;;;;;;;;5054288;28;20269;-69
2022/09/01 07:42:43;;;;;;;;;;;;;;;;;;5075729;28;19973;-67
2022/09/01 07:45:09;;;;;;;;;;;;;;;;;;5078228;28;19916;-68
2022/09/01 07:47:35;;;;;;;;;;;;;;;;;;5072396;28;19908;-68
2022/09/01 07:50:01;;;;;;;;;;;;;;;;;;5054411;28;19915;-67
2022/09/01 07:52:26;;;;;;;;;;;;;;;;;;5072250;28;19912;-67
2022/09/01 07:54:51;;;;;;;;;;;;;;;;;;5086877;28;19912;-67
2022/09/01 07:57:17;;;;;;;;;;;;;;;;;;5092630;28;19909;-67
2022/09/01 07:59:42;;;;;;;;;;;;;;;;;;5092461;28;19912;-68
2022/09/01 08:02:07;;;;;;;;;;;;;;;;;;5076132;28;20390;-67
2022/09/01 08:04:33;;;;;;;;;;;;;;;;;;5086775;28;20264;-67
2022/09/01 08:06:58;;;;;;;;;;;;;;;;;;5078006;28;20344;-67
2022/09/01 08:09:23;;;;;;;;;;;;;;;;;;5072537;28;19919;-68
2022/09/01 08:11:49;;;;;;;;;;;;;;;;;;5071764;28;19908;-68
2022/09/01 08:14:14;;;;;;;;;;;;;;;;;;5075140;28;20364;-68
2022/09/01 08:16:39;;;;;;;;;;;;;;;;;;5073357;28;19929;-66
2022/09/01 08:19:04;;;;;;;;;;;;;;;;;;5059800;28;19912;-67
2022/09/01 08:21:29;;;;;;;;;;;;;;;;;;5080375;28;20369;-68
2022/09/01 08:23:55;;;;;;;;;;;;;;;;;;5057193;28;20288;-68
2022/09/01 08:26:20;;;;;;;;;;;;;;;;;;5079242;28;20007;-68
2022/09/01 08:28:45;;;;;;;;;;;;;;;;;;5085929;28;19940;-68
2022/09/01 08:31:10;;;;;;;;;;;;;;;;;;5059611;28;19912;-68
2022/09/01 08:33:35;;;;;;;;;;;;;;;;;;5080327;28;19917;-68
2022/09/01 08:36:00;;;;;;;;;;;;;;;;;;5084043;28;19986;-68
2022/09/01 08:38:26;;;;;;;;;;;;;;;;;;5078281;28;19912;-68
2022/09/01 08:40:52;;;;;;;;;;;;;;;;;;5075396;28;19958;-68
2022/09/01 08:43:17;;;;;;;;;;;;;;;;;;5070547;28;20395;-68
2022/09/01 08:45:43;;;;;;;;;;;;;;;;;;5071330;28;19912;-68
2022/09/01 08:48:08;;;;;;;;;;;;;;;;;;5089257;28;19967;-68
2022/09/01 08:50:34;;;;;;;;;;;;;;;;;;5090676;28;19920;-68
2022/09/01 08:52:59;;;;;;;;;;;;;;;;;;5054867;28;19913;-68
2022/09/01 08:55:26;;;;;;;;;;;;;;;;;;5059764;28;19947;-68
2022/09/01 08:57:54;;;;;;;;;;;;;;;;;;5077539;28;19912;-68
2022/09/01 09:00:19;;;;;;;;;;;;;;;;;;5086576;28;19916;-67
2022/09/01 09:02:44;;;;;;;;;;;;;;;;;;5082899;28;19959;-68
2022/09/01 09:05:09;;;;;;;;;;;;;;;;;;5063191;28;20336;-69
2022/09/01 09:07:34;;;;;;;;;;;;;;;;;;5089898;28;20003;-69
2022/09/01 09:10:00;;;;;;;;;;;;;;;;;;5093420;28;19916;-67
2022/09/01 09:12:25;;;;;;;;;;;;;;;;;;5095289;28;19912;-68
2022/09/01 09:14:50;;;;;;;;;;;;;;;;;;5078898;28;19925;-68
2022/09/01 09:17:15;;;;;;;;;;;;;;;;;;5055384;28;19967;-67
2022/09/01 09:19:41;;;;;;;;;;;;;;;;;;5063999;28;20273;-69
2022/09/01 09:22:09;;;;;;;;;;;;;;;;;;5058997;28;20388;-68
2022/09/01 09:24:46;;;;;;;;;;;;;;;;;;5065207;28;19909;-68
2022/09/01 09:27:12;;;;;;;;;;;;;;;;;;5043640;28;19912;-68
2022/09/01 09:29:37;;;;;;;;;;;;;;;;;;5061263;28;19913;-69
2022/09/01 09:32:02;;;;;;;;;;;;;;;;;;5060055;28;19913;-68
2022/09/01 09:34:27;;;;;;;;;;;;;;;;;;5071767;28;20031;-68
2022/09/01 09:36:52;;;;;;;;;;;;;;;;;;5073020;28;19912;-69
2022/09/01 09:39:18;;;;;;;;;;;;;;;;;;5057105;28;19917;-69
2022/09/01 09:41:46;;;;;;;;;;;;;;;;;;5054936;28;19919;-68
2022/09/01 09:44:11;;;;;;;;;;;;;;;;;;5035329;28;19913;-67
2022/09/01 09:46:36;;;;;;;;;;;;;;;;;;5036475;28;19958;-67
2022/09/01 09:49:01;;;;;;;;;;;;;;;;;;5051026;28;20352;-68
2022/09/01 09:51:26;;;;;;;;;;;;;;;;;;5048225;28;19961;-68
2022/09/01 09:53:51;;;;;;;;;;;;;;;;;;5064220;28;19920;-68
2022/09/01 09:56:17;;;;;;;;;;;;;;;;;;5067891;28;19916;-70
2022/09/01 09:58:42;;;;;;;;;;;;;;;;;;5069390;28;19913;-69
2022/09/01 10:01:07;;;;;;;;;;;;;;;;;;5046072;28;19943;-71
2022/09/01 10:03:32;;;;;;;;;;;;;;;;;;5066826;28;19955;-70
2022/09/01 10:05:57;;;;;;;;;;;;;;;;;;5052867;28;19913;-71
2022/09/01 10:08:22;;;;;;;;;;;;;;;;;;5062466;28;19912;-72
2022/09/01 10:10:48;;;;;;;;;;;;;;;;;;5053415;28;20066;-70
2022/09/01 10:13:13;;;;;;;;;;;;;;;;;;5060077;28;19912;-72
2022/09/01 10:15:38;;;;;;;;;;;;;;;;;;5049493;28;19928;-72
2022/09/01 10:18:04;;;;;;;;;;;;;;;;;;5058698;28;19927;-71
2022/09/01 10:20:29;;;;;;;;;;;;;;;;;;5065107;28;19916;-71
2022/09/01 10:22:54;;;;;;;;;;;;;;;;;;5064918;28;20387;-71
2022/09/01 10:25:19;;;;;;;;;;;;;;;;;;5066768;28;20427;-71
2022/09/01 10:27:45;;;;;;;;;;;;;;;;;;5055367;28;20023;-69
2022/09/01 10:30:12;;;;;;;;;;;;;;;;;;5058246;28;19916;-71
2022/09/01 10:32:37;;;;;;;;;;;;;;;;;;5059280;28;19921;-70
2022/09/01 10:35:03;;;;;;;;;;;;;;;;;;5059765;28;19935;-73
2022/09/01 10:37:28;;;;;;;;;;;;;;;;;;5065696;28;19970;-69
2022/09/01 10:39:53;;;;;;;;;;;;;;;;;;5059771;28;19916;-69
2022/09/01 10:42:20;;;;;;;;;;;;;;;;;;5070639;28;19917;-71
2022/09/01 10:44:45;;;;;;;;;;;;;;;;;;5051423;28;19986;-70
2022/09/01 10:47:10;;;;;;;;;;;;;;;;;;5069842;28;19959;-70
2022/09/01 10:49:35;;;;;;;;;;;;;;;;;;5062206;28;19913;-71
2022/09/01 10:52:00;;;;;;;;;;;;;;;;;;5060573;28;20273;-68
2022/09/01 10:54:25;;;;;;;;;;;;;;;;;;5072854;28;19919;-69
2022/09/01 10:56:52;;;;;;;;;;;;;;;;;;5070439;28;19908;-66
2022/09/01 10:59:17;;;;;;;;;;;;;;;;;;5062468;28;19924;-69
2022/09/01 11:01:43;;;;;;;;;;;;;;;;;;5061481;28;19915;-69
2022/09/01 11:04:08;;;;;;;;;;;;;;;;;;5071904;28;19920;-68
2022/09/01 11:06:33;;;;;;;;;;;;;;;;;;5066208;28;19948;-63
2022/09/01 11:08:58;;;;;;;;;;;;;;;;;;5052193;28;20114;-65
2022/09/01 11:11:23;;;;;;;;;;;;;;;;;;5057402;28;19913;-68
2022/09/01 11:13:48;;;;;;;;;;;;;;;;;;5054491;28;19919;-65
2022/09/01 11:16:14;;;;;;;;;;;;;;;;;;5055008;28;19921;-66
2022/09/01 11:18:39;;;;;;;;;;;;;;;;;;5064711;28;19962;-61
2022/09/01 11:21:04;;;;;;;;;;;;;;;;;;5053566;28;19922;-67
2022/09/01 11:23:29;;;;;;;;;;;;;;;;;;5064729;28;19916;-68
2022/09/01 11:25:54;;;;;;;;;;;;;;;;;;5056880;28;19912;-68
2022/09/01 11:28:19;;;;;;;;;;;;;;;;;;5053514;28;19916;-68
2022/09/01 11:30:51;;;;;;;;;;;;;;;;;;5053687;28;19913;-68
2022/09/01 11:33:16;;;;;;;;;;;;;;;;;;5063232;28;20292;-64
2022/09/01 11:35:41;;;;;;;;;;;;;;;;;;5063298;28;20011;-67
2022/09/01 11:38:07;;;;;;;;;;;;;;;;;;5066238;28;19913;-68
2022/09/01 11:40:32;;;;;;;;;;;;;;;;;;5067360;28;19925;-68
2022/09/01 11:42:57;;;;;;;;;;;;;;;;;;5058051;28;19919;-71
2022/09/01 11:45:22;;;;;;;;;;;;;;;;;;5047953;28;19912;-67
2022/09/01 11:47:49;;;;;;;;;;;;;;;;;;5056764;28;20574;-69
2022/09/01 11:50:14;;;;;;;;;;;;;;;;;;5052279;28;19909;-69
2022/09/01 11:52:40;;;;;;;;;;;;;;;;;;5066437;28;19919;-67
2022/09/01 11:55:05;;;;;;;;;;;;;;;;;;5049767;28;19916;-68
2022/09/01 11:57:30;;;;;;;;;;;;;;;;;;5065896;28;19912;-69
2022/09/01 11:59:55;;;;;;;;;;;;;;;;;;5052429;28;19917;-69
2022/09/01 12:02:21;;;;;;;;;;;;;;;;;;5050292;28;20596;-67
2022/09/01 12:04:48;;;;;;;;;;;;;;;;;;5053038;28;20336;-68
2022/09/01 12:07:13;;;;;;;;;;;;;;;;;;5066800;28;19944;-70
2022/09/01 12:09:38;;;;;;;;;;;;;;;;;;5060628;28;20297;-68
2022/09/01 12:12:04;;;;;;;;;;;;;;;;;;5070670;28;19919;-71
2022/09/01 12:14:29;;;;;;;;;;;;;;;;;;5061182;28;19924;-67
2022/09/01 12:16:54;;;;;;;;;;;;;;;;;;5084151;28;20329;-68
2022/09/01 12:19:19;;;;;;;;;;;;;;;;;;5066017;28;19912;-70
2022/09/01 12:21:44;;;;;;;;;;;;;;;;;;5081105;28;19918;-69
2022/09/01 12:24:10;;;;;;;;;;;;;;;;;;5087218;28;19961;-71
2022/09/01 12:26:35;;;;;;;;;;;;;;;;;;5081396;28;19971;-69
2022/09/01 12:29:00;;;;;;;;;;;;;;;;;;5061284;28;19912;-73
2022/09/01 12:31:25;;;;;;;;;;;;;;;;;;5090968;28;19912;-71
2022/09/01 12:33:50;;;;;;;;;;;;;;;;;;5071475;28;19912;-68
2022/09/01 12:36:15;;;;;;;;;;;;;;;;;;5084211;28;19951;-70
2022/09/01 12:38:40;;;;;;;;;;;;;;;;;;5075909;28;19912;-72
2022/09/01 12:41:06;;;;;;;;;;;;;;;;;;5092211;28;20249;-71
2022/09/01 12:43:31;;;;;;;;;;;;;;;;;;5066302;28;20276;-70
2022/09/01 12:45:59;;;;;;;;;;;;;;;;;;5082832;28;19912;-69
2022/09/01 12:48:24;;;;;;;;;;;;;;;;;;5058746;28;19913;-70
2022/09/01 12:50:49;;;;;;;;;;;;;;;;;;5081963;28;19912;-69
2022/09/01 12:53:15;;;;;;;;;;;;;;;;;;5064956;28;19919;-71
2022/09/01 12:55:40;;;;;;;;;;;;;;;;;;5095600;28;19908;-71
2022/09/01 12:58:05;;;;;;;;;;;;;;;;;;5095857;28;19908;-70
2022/09/01 13:00:30;;;;;;;;;;;;;;;;;;5091899;28;19923;-67
2022/09/01 13:02:55;;;;;;;;;;;;;;;;;;5075236;28;19916;-68
2022/09/01 13:05:20;;;;;;;;;;;;;;;;;;5094758;28;20013;-70
2022/09/01 13:07:45;;;;;;;;;;;;;;;;;;5094770;28;19908;-72
2022/09/01 13:10:11;;;;;;;;;;;;;;;;;;5082732;28;19908;-68
2022/09/01 13:12:36;;;;;;;;;;;;;;;;;;5072601;28;19965;-70
2022/09/01 13:15:01;;;;;;;;;;;;;;;;;;5065321;28;20387;-62
2022/09/01 13:17:26;;;;;;;;;;;;;;;;;;5103532;28;19919;-71
2022/09/01 13:19:51;;;;;;;;;;;;;;;;;;5101701;28;20368;-70
2022/09/01 13:22:16;;;;;;;;;;;;;;;;;;5085120;28;19916;-69
2022/09/01 13:24:41;;;;;;;;;;;;;;;;;;5066439;28;20269;-69
2022/09/01 13:27:07;;;;;;;;;;;;;;;;;;5090327;28;19920;-69
2022/09/01 13:29:32;;;;;;;;;;;;;;;;;;5063151;28;19913;-69
2022/09/01 13:31:58;;;;;;;;;;;;;;;;;;5081547;28;19924;-69
2022/09/01 13:34:23;;;;;;;;;;;;;;;;;;5057590;28;19920;-71
2022/09/01 13:36:48;;;;;;;;;;;;;;;;;;5083007;28;19916;-68
2022/09/01 13:39:13;;;;;;;;;;;;;;;;;;5062920;28;20362;-69
2022/09/01 13:41:39;;;;;;;;;;;;;;;;;;5086048;28;20364;-70
2022/09/01 13:44:04;;;;;;;;;;;;;;;;;;5075282;28;20387;-68
2022/09/01 13:46:29;;;;;;;;;;;;;;;;;;5062589;28;19916;-68
2022/09/01 13:48:54;;;;;;;;;;;;;;;;;;5087479;28;19958;-69
2022/09/01 13:51:19;;;;;;;;;;;;;;;;;;5061720;28;19916;-67
2022/09/01 13:53:44;;;;;;;;;;;;;;;;;;5063683;28;19908;-68
2022/09/01 13:56:10;;;;;;;;;;;;;;;;;;5085520;28;20237;-69
2022/09/01 13:58:35;;;;;;;;;;;;;;;;;;5074833;28;19917;-68
2022/09/01 14:01:01;;;;;;;;;;;;;;;;;;5081799;28;19986;-68
2022/09/01 14:03:26;;;;;;;;;;;;;;;;;;5070181;28;19950;-69
2022/09/01 14:05:51;;;;;;;;;;;;;;;;;;5076206;28;19934;-69
2022/09/01 14:08:16;;;;;;;;;;;;;;;;;;5083247;28;20386;-69
2022/09/01 14:10:41;;;;;;;;;;;;;;;;;;5097470;28;19912;-68
2022/09/01 14:13:07;;;;;;;;;;;;;;;;;;5093078;28;19938;-68
2022/09/01 14:15:32;;;;;;;;;;;;;;;;;;5063002;28;20562;-69
2022/09/01 14:17:57;;;;;;;;;;;;;;;;;;5075028;28;20019;-69
2022/09/01 14:20:22;;;;;;;;;;;;;;;;;;5083901;28;20367;-69
2022/09/01 14:22:47;;;;;;;;;;;;;;;;;;5067949;28;20338;-66
2022/09/01 14:25:12;;;;;;;;;;;;;;;;;;5076017;28;19912;-69
2022/09/01 14:27:37;;;;;;;;;;;;;;;;;;5056050;28;19916;-69
2022/09/01 14:30:03;;;;;;;;;;;;;;;;;;5074348;28;20327;-67
2022/09/01 14:32:28;;;;;;;;;;;;;;;;;;5081116;28;19917;-68
2022/09/01 14:34:53;;;;;;;;;;;;;;;;;;5071271;28;19920;-69
2022/09/01 14:37:18;;;;;;;;;;;;;;;;;;5084832;28;20280;-68
2022/09/01 14:39:44;;;;;;;;;;;;;;;;;;5087192;28;19920;-69
2022/09/01 14:42:10;;;;;;;;;;;;;;;;;;5079548;28;19916;-69
2022/09/01 14:44:36;;;;;;;;;;;;;;;;;;5085196;28;19920;-69
2022/09/01 14:47:01;;;;;;;;;;;;;;;;;;5069931;28;20599;-69
2022/09/01 14:49:26;;;;;;;;;;;;;;;;;;5080779;28;19914;-68
2022/09/01 14:51:52;;;;;;;;;;;;;;;;;;5073746;28;19982;-70
2022/09/01 14:54:17;;;;;;;;;;;;;;;;;;5078965;28;20447;-69
2022/09/01 14:56:42;;;;;;;;;;;;;;;;;;5081377;28;19908;-69
2022/09/01 14:59:09;;;;;;;;;;;;;;;;;;5088988;28;19966;-68
2022/09/01 15:01:34;;;;;;;;;;;;;;;;;;5085784;28;19912;-69
2022/09/01 15:04:00;;;;;;;;;;;;;;;;;;5091268;28;19961;-69
2022/09/01 15:06:25;;;;;;;;;;;;;;;;;;5082805;28;19919;-69
2022/09/01 15:08:50;;;;;;;;;;;;;;;;;;5082237;28;19920;-68
2022/09/01 15:11:15;;;;;;;;;;;;;;;;;;5084761;28;19912;-69
2022/09/01 15:13:40;;;;;;;;;;;;;;;;;;5074264;28;19961;-69
2022/09/01 15:16:05;;;;;;;;;;;;;;;;;;5064543;28;19926;-69
2022/09/01 15:18:31;;;;;;;;;;;;;;;;;;5067838;28;19913;-69
2022/09/01 15:20:56;;;;;;;;;;;;;;;;;;5065731;28;19923;-69
2022/09/01 15:23:21;;;;;;;;;;;;;;;;;;5055022;28;19920;-66
2022/09/01 15:25:46;;;;;;;;;;;;;;;;;;5041884;28;19920;-69
2022/09/01 15:28:11;;;;;;;;;;;;;;;;;;5067247;28;19912;-68
2022/09/01 15:30:37;;;;;;;;;;;;;;;;;;5053774;28;20347;-69
2022/09/01 15:33:02;;;;;;;;;;;;;;;;;;5037260;28;19913;-69
2022/09/01 15:35:28;;;;;;;;;;;;;;;;;;5039021;28;20011;-69
2022/09/01 15:37:54;;;;;;;;;;;;;;;;;;5063699;28;19920;-69
2022/09/01 15:40:19;;;;;;;;;;;;;;;;;;5070431;28;19924;-70
2022/09/01 15:42:44;;;;;;;;;;;;;;;;;;5055902;28;20381;-70
2022/09/01 15:45:09;;;;;;;;;;;;;;;;;;5059407;28;19916;-69
2022/09/01 15:47:34;;;;;;;;;;;;;;;;;;5055662;28;19920;-70
2022/09/01 15:49:59;;;;;;;;;;;;;;;;;;5051562;28;19913;-67
2022/09/01 15:52:26;;;;;;;;;;;;;;;;;;5058834;28;19913;-68
2022/09/01 15:54:51;;;;;;;;;;;;;;;;;;5059834;28;19913;-67
2022/09/01 15:57:17;;;;;;;;;;;;;;;;;;5050743;28;20446;-69
2022/09/01 15:59:43;;;;;;;;;;;;;;;;;;5051458;28;20011;-69
2022/09/01 16:02:09;;;;;;;;;;;;;;;;;;5051965;28;19920;-69
2022/09/01 16:04:34;;;;;;;;;;;;;;;;;;5055056;28;19918;-68
2022/09/01 16:06:59;;;;;;;;;;;;;;;;;;5052520;28;19913;-68
2022/09/01 16:09:25;;;;;;;;;;;;;;;;;;5050271;28;19948;-69
2022/09/01 16:11:50;;;;;;;;;;;;;;;;;;5042985;28;20265;-69
2022/09/01 16:14:15;;;;;;;;;;;;;;;;;;5047925;28;20091;-66
2022/09/01 16:16:40;;;;;;;;;;;;;;;;;;5072819;28;19920;-66
2022/09/01 16:19:05;;;;;;;;;;;;;;;;;;5073538;28;20024;-69
2022/09/01 16:21:32;;;;;;;;;;;;;;;;;;5083139;28;19916;-67
2022/09/01 16:23:57;;;;;;;;;;;;;;;;;;5076204;28;19912;-68
2022/09/01 16:26:22;;;;;;;;;;;;;;;;;;5053498;28;19967;-67
2022/09/01 16:28:48;;;;;;;;;;;;;;;;;;5085187;28;19960;-69
2022/09/01 16:31:13;;;;;;;;;;;;;;;;;;5089450;28;19916;-67
2022/09/01 16:33:38;;;;;;;;;;;;;;;;;;5076018;28;20008;-68
2022/09/01 16:36:05;;;;;;;;;;;;;;;;;;5071448;28;20377;-70
2022/09/01 16:38:30;;;;;;;;;;;;;;;;;;5065927;28;20371;-67
2022/09/01 16:40:56;;;;;;;;;;;;;;;;;;5057417;28;19916;-68